North Fork Spring River (Missouri), Purcell (07185910)

StateMissouriLatestUnknown (176 cfs)
RiverNorth Fork Spring RiverRatingObservedEstimated
Updated2026-05-05 5:30 (1 hour ago)Flood - The river is flooding. Obstacles can be treacherous or deadly. The river should be avoided at this stage for casual trips and definitely for the inexperienced. Trips should be attempted only with protective gear and equipment.Flood(none)(none)
Discharge176 cfs (median: 541 cfs)High - The river is high and potentially dangerous, especially for the young and / or inexperienced. Normal stream obstacles are sometimes difficult to navigate. Extended distances can be attempted, but canoe travel may not be advisable.High(none)(none)
Height3.74 feetGood - Conditions are ideal for a canoe or kayak. Boats typically will drag on fewer than one-quarter of riffles, if at all, and portages are unnecessary or rare. Normal float lengths can be attempted without a problem.Good(none)(none)
TrendFalling (falling over 24 hours)Low - River is low but can still be floated. Some riffles are okay but most come with significant dragging and might need a portage. Float lengths should be reduced to accommodate low flow, dragging, and portages.Low(none)(none)
USGSExternal icon USGS Site (External icon Duck Duck Go Maps)Poor - River is too low to float comfortably. Most or all riffles will drag or must be portaged and some obstacles (such as slick shelf rock) cause undue problems. Avoid the river at this stage for casual paddling trips.Poor(none)(none)

Trending Data

Plot Image

Trips for North Fork Spring River (Missouri), Purcell (07185910)

DateStartEndDistanceConditionDischargeHeightFishingDetails

A total of 0 rows are displayed.

Condition Descriptions

Fishing Conditions

Fish Species

Notes

Classic Trip List

The classic River Trips application is still available for use. It is updated with the new system using a data retrofit. It is no longer maintained. The original River Trips application is no longer updated (as of 1 Dec 2016) but can be checked for errors or for the condition of the data before it was converted to the new system.

Gauge Data Table

ObservationHeightDischargeMaximum
Discharge
Minimum
Discharge
Mean
Discharge
P05P10P20P25P50
(Median)
P75P80P90P95
2026-05-05 05:30 3.74 176 16000 (2022) 24 (2014) 1670 24 60 86 198 541 1180 1280 4460 16000
2026-05-05 04:30 3.75 178 16000 (2022) 24 (2014) 1670 24 60 86 198 541 1180 1280 4460 16000
2026-05-05 03:30 3.75 178 16000 (2022) 24 (2014) 1670 24 60 86 198 541 1180 1280 4460 16000
2026-05-05 02:30 3.74 176 16000 (2022) 24 (2014) 1670 24 60 86 198 541 1180 1280 4460 16000
2026-05-05 01:30 3.74 176 16000 (2022) 24 (2014) 1670 24 60 86 198 541 1180 1280 4460 16000
2026-05-05 00:30 3.74 176 16000 (2022) 24 (2014) 1670 24 60 86 198 541 1180 1280 4460 16000
2026-05-04 23:30 3.74 176 16000 (2022) 24 (2014) 1670 24 60 86 198 541 1180 1280 4460 16000
2026-05-04 22:30 3.75 178 6620 (2017) 22 (2023) 1230 22 33 77 117 609 1490 2220 4010 6620
2026-05-04 21:30 3.74 176 6620 (2017) 22 (2023) 1230 22 33 77 117 609 1490 2220 4010 6620
2026-05-04 20:30 3.75 178 6620 (2017) 22 (2023) 1230 22 33 77 117 609 1490 2220 4010 6620
2026-05-04 19:30 3.76 180 6620 (2017) 22 (2023) 1230 22 33 77 117 609 1490 2220 4010 6620
2026-05-04 18:30 3.75 178 6620 (2017) 22 (2023) 1230 22 33 77 117 609 1490 2220 4010 6620
2026-05-04 17:30 3.75 178 6620 (2017) 22 (2023) 1230 22 33 77 117 609 1490 2220 4010 6620
2026-05-04 16:30 3.76 180 6620 (2017) 22 (2023) 1230 22 33 77 117 609 1490 2220 4010 6620
2026-05-04 15:30 3.77 182 6620 (2017) 22 (2023) 1230 22 33 77 117 609 1490 2220 4010 6620
2026-05-04 14:30 3.77 182 6620 (2017) 22 (2023) 1230 22 33 77 117 609 1490 2220 4010 6620
2026-05-04 13:30 3.79 186 6620 (2017) 22 (2023) 1230 22 33 77 117 609 1490 2220 4010 6620
2026-05-04 12:30 3.78 184 6620 (2017) 22 (2023) 1230 22 33 77 117 609 1490 2220 4010 6620
2026-05-04 11:30 3.79 186 6620 (2017) 22 (2023) 1230 22 33 77 117 609 1490 2220 4010 6620
2026-05-04 10:30 3.80 188 6620 (2017) 22 (2023) 1230 22 33 77 117 609 1490 2220 4010 6620
2026-05-04 09:30 3.81 190 6620 (2017) 22 (2023) 1230 22 33 77 117 609 1490 2220 4010 6620
2026-05-04 08:30 3.82 192 6620 (2017) 22 (2023) 1230 22 33 77 117 609 1490 2220 4010 6620
2026-05-04 07:30 3.82 192 6620 (2017) 22 (2023) 1230 22 33 77 117 609 1490 2220 4010 6620
2026-05-04 06:30 3.83 194 6620 (2017) 22 (2023) 1230 22 33 77 117 609 1490 2220 4010 6620
2026-05-04 05:30 3.85 198 6620 (2017) 22 (2023) 1230 22 33 77 117 609 1490 2220 4010 6620
2026-05-04 04:30 3.86 201 6620 (2017) 22 (2023) 1230 22 33 77 117 609 1490 2220 4010 6620
2026-05-04 03:30 3.86 201 6620 (2017) 22 (2023) 1230 22 33 77 117 609 1490 2220 4010 6620
2026-05-04 02:30 3.86 201 6620 (2017) 22 (2023) 1230 22 33 77 117 609 1490 2220 4010 6620
2026-05-04 01:30 3.87 203 6620 (2017) 22 (2023) 1230 22 33 77 117 609 1490 2220 4010 6620
2026-05-04 00:30 3.88 205 6620 (2017) 22 (2023) 1230 22 33 77 117 609 1490 2220 4010 6620
2026-05-03 23:30 3.88 205 6620 (2017) 22 (2023) 1230 22 33 77 117 609 1490 2220 4010 6620
2026-05-03 22:30 3.89 207 7940 (2019) 23 (2023) 1780 23 42 80 100 594 2010 3590 7730 7940
2026-05-03 21:30 3.90 209 7940 (2019) 23 (2023) 1780 23 42 80 100 594 2010 3590 7730 7940
2026-05-03 20:30 3.90 209 7940 (2019) 23 (2023) 1780 23 42 80 100 594 2010 3590 7730 7940
2026-05-03 19:30 3.91 211 7940 (2019) 23 (2023) 1780 23 42 80 100 594 2010 3590 7730 7940
2026-05-03 18:30 3.91 211 7940 (2019) 23 (2023) 1780 23 42 80 100 594 2010 3590 7730 7940
2026-05-03 17:30 3.92 213 7940 (2019) 23 (2023) 1780 23 42 80 100 594 2010 3590 7730 7940
2026-05-03 16:30 3.92 213 7940 (2019) 23 (2023) 1780 23 42 80 100 594 2010 3590 7730 7940
2026-05-03 15:30 3.94 218 7940 (2019) 23 (2023) 1780 23 42 80 100 594 2010 3590 7730 7940
2026-05-03 14:30 3.94 218 7940 (2019) 23 (2023) 1780 23 42 80 100 594 2010 3590 7730 7940
2026-05-03 13:30 3.95 220 7940 (2019) 23 (2023) 1780 23 42 80 100 594 2010 3590 7730 7940
2026-05-03 12:30 3.96 222 7940 (2019) 23 (2023) 1780 23 42 80 100 594 2010 3590 7730 7940
2026-05-03 11:30 3.96 222 7940 (2019) 23 (2023) 1780 23 42 80 100 594 2010 3590 7730 7940
2026-05-03 10:30 3.97 224 7940 (2019) 23 (2023) 1780 23 42 80 100 594 2010 3590 7730 7940
2026-05-03 09:30 3.97 224 7940 (2019) 23 (2023) 1780 23 42 80 100 594 2010 3590 7730 7940
2026-05-03 08:30 3.98 226 7940 (2019) 23 (2023) 1780 23 42 80 100 594 2010 3590 7730 7940
2026-05-03 07:30 3.99 229 7940 (2019) 23 (2023) 1780 23 42 80 100 594 2010 3590 7730 7940
2026-05-03 06:30 3.99 229 7940 (2019) 23 (2023) 1780 23 42 80 100 594 2010 3590 7730 7940
2026-05-03 05:30 4.01 233 7940 (2019) 23 (2023) 1780 23 42 80 100 594 2010 3590 7730 7940
2026-05-03 04:30 4.02 235 7940 (2019) 23 (2023) 1780 23 42 80 100 594 2010 3590 7730 7940
2026-05-03 03:30 4.02 235 7940 (2019) 23 (2023) 1780 23 42 80 100 594 2010 3590 7730 7940
2026-05-03 02:30 4.05 242 7940 (2019) 23 (2023) 1780 23 42 80 100 594 2010 3590 7730 7940
2026-05-03 01:30 4.05 242 7940 (2019) 23 (2023) 1780 23 42 80 100 594 2010 3590 7730 7940
2026-05-03 00:30 4.07 247 7940 (2019) 23 (2023) 1780 23 42 80 100 594 2010 3590 7730 7940
2026-05-02 23:30 4.08 249 7940 (2019) 23 (2023) 1780 23 42 80 100 594 2010 3590 7730 7940
2026-05-02 22:30 4.08 249 12200 (2019) 23 (2023) 2660 44 84 95 428 3630 5580 11600
2026-05-02 21:30 4.10 254 12200 (2019) 23 (2023) 2660 44 84 95 428 3630 5580 11600
2026-05-02 20:30 4.11 256 12200 (2019) 23 (2023) 2660 44 84 95 428 3630 5580 11600
2026-05-02 19:30 4.12 258 12200 (2019) 23 (2023) 2660 44 84 95 428 3630 5580 11600
2026-05-02 18:30 4.13 261 12200 (2019) 23 (2023) 2660 44 84 95 428 3630 5580 11600
2026-05-02 17:30 4.14 263 12200 (2019) 23 (2023) 2660 44 84 95 428 3630 5580 11600
2026-05-02 16:30 4.16 268 12200 (2019) 23 (2023) 2660 44 84 95 428 3630 5580 11600
2026-05-02 15:30 4.19 275 12200 (2019) 23 (2023) 2660 44 84 95 428 3630 5580 11600
2026-05-02 14:30 4.21 280 12200 (2019) 23 (2023) 2660 44 84 95 428 3630 5580 11600
2026-05-02 13:30 4.19 275 12200 (2019) 23 (2023) 2660 44 84 95 428 3630 5580 11600
2026-05-02 12:30 4.21 280 12200 (2019) 23 (2023) 2660 44 84 95 428 3630 5580 11600
2026-05-02 11:30 4.24 288 12200 (2019) 23 (2023) 2660 44 84 95 428 3630 5580 11600
2026-05-02 10:30 4.22 283 12200 (2019) 23 (2023) 2660 44 84 95 428 3630 5580 11600
2026-05-02 09:30 4.24 288 12200 (2019) 23 (2023) 2660 44 84 95 428 3630 5580 11600
2026-05-02 08:30 4.25 290 12200 (2019) 23 (2023) 2660 44 84 95 428 3630 5580 11600
2026-05-02 07:30 4.27 295 12200 (2019) 23 (2023) 2660 44 84 95 428 3630 5580 11600
2026-05-02 06:30 4.29 300 12200 (2019) 23 (2023) 2660 44 84 95 428 3630 5580 11600
2026-05-02 05:30 4.30 303 12200 (2019) 23 (2023) 2660 44 84 95 428 3630 5580 11600
2026-05-02 04:30 4.32 308 12200 (2019) 23 (2023) 2660 44 84 95 428 3630 5580 11600
2026-05-02 03:30 4.34 314 12200 (2019) 23 (2023) 2660 44 84 95 428 3630 5580 11600
2026-05-02 02:30 4.36 319 12200 (2019) 23 (2023) 2660 44 84 95 428 3630 5580 11600
2026-05-02 01:30 4.39 327 12200 (2019) 23 (2023) 2660 44 84 95 428 3630 5580 11600
2026-05-02 00:30 4.42 335 12200 (2019) 23 (2023) 2660 44 84 95 428 3630 5580 11600
2026-05-01 23:30 4.44 341 12200 (2019) 23 (2023) 2660 44 84 95 428 3630 5580 11600
2026-05-01 22:30 4.45 344 16000 (2017) 24 (2023) 3050 36 77 92 548 3640 6050 13000
2026-05-01 21:30 4.47 350 16000 (2017) 24 (2023) 3050 36 77 92 548 3640 6050 13000
2026-05-01 20:30 4.50 358 16000 (2017) 24 (2023) 3050 36 77 92 548 3640 6050 13000
2026-05-01 19:30 4.50 358 16000 (2017) 24 (2023) 3050 36 77 92 548 3640 6050 13000
2026-05-01 18:30 4.53 367 16000 (2017) 24 (2023) 3050 36 77 92 548 3640 6050 13000
2026-05-01 17:30 4.55 373 16000 (2017) 24 (2023) 3050 36 77 92 548 3640 6050 13000
2026-05-01 16:30 4.56 376 16000 (2017) 24 (2023) 3050 36 77 92 548 3640 6050 13000
2026-05-01 15:30 4.58 382 16000 (2017) 24 (2023) 3050 36 77 92 548 3640 6050 13000
2026-05-01 14:30 4.61 391 16000 (2017) 24 (2023) 3050 36 77 92 548 3640 6050 13000
2026-05-01 13:30 4.64 400 16000 (2017) 24 (2023) 3050 36 77 92 548 3640 6050 13000
2026-05-01 12:30 4.65 403 16000 (2017) 24 (2023) 3050 36 77 92 548 3640 6050 13000
2026-05-01 11:30 4.68 412 16000 (2017) 24 (2023) 3050 36 77 92 548 3640 6050 13000
2026-05-01 10:30 4.71 421 16000 (2017) 24 (2023) 3050 36 77 92 548 3640 6050 13000
2026-05-01 09:30 4.73 428 16000 (2017) 24 (2023) 3050 36 77 92 548 3640 6050 13000
2026-05-01 08:30 4.76 437 16000 (2017) 24 (2023) 3050 36 77 92 548 3640 6050 13000
2026-05-01 07:30 4.79 447 16000 (2017) 24 (2023) 3050 36 77 92 548 3640 6050 13000
2026-05-01 06:30 4.83 460 16000 (2017) 24 (2023) 3050 36 77 92 548 3640 6050 13000
2026-05-01 05:30 4.87 473 16000 (2017) 24 (2023) 3050 36 77 92 548 3640 6050 13000
2026-05-01 04:30 4.90 483 16000 (2017) 24 (2023) 3050 36 77 92 548 3640 6050 13000
2026-05-01 03:30 4.93 493 16000 (2017) 24 (2023) 3050 36 77 92 548 3640 6050 13000
2026-05-01 02:30 4.98 510 16000 (2017) 24 (2023) 3050 36 77 92 548 3640 6050 13000
2026-05-01 01:30 5.02 524 16000 (2017) 24 (2023) 3050 36 77 92 548 3640 6050 13000
2026-05-01 00:30 5.07 542 16000 (2017) 24 (2023) 3050 36 77 92 548 3640 6050 13000
2026-04-30 23:30 5.11 556 16000 (2017) 24 (2023) 3050 36 77 92 548 3640 6050 13000
2026-04-30 22:30 5.17 578 18600 (2017) 28 (2023) 2540 43 90 110 889 3010 3690 7650
2026-04-30 21:30 5.20 589 18600 (2017) 28 (2023) 2540 43 90 110 889 3010 3690 7650
2026-04-30 20:30 5.28 619 18600 (2017) 28 (2023) 2540 43 90 110 889 3010 3690 7650
2026-04-30 19:30 5.32 634 18600 (2017) 28 (2023) 2540 43 90 110 889 3010 3690 7650
2026-04-30 18:30 5.36 650 18600 (2017) 28 (2023) 2540 43 90 110 889 3010 3690 7650
2026-04-30 17:30 5.41 669 18600 (2017) 28 (2023) 2540 43 90 110 889 3010 3690 7650
2026-04-30 16:30 5.48 697 18600 (2017) 28 (2023) 2540 43 90 110 889 3010 3690 7650
2026-04-30 15:30 5.53 717 18600 (2017) 28 (2023) 2540 43 90 110 889 3010 3690 7650
2026-04-30 14:30 5.58 738 18600 (2017) 28 (2023) 2540 43 90 110 889 3010 3690 7650
2026-04-30 13:30 5.64 763 18600 (2017) 28 (2023) 2540 43 90 110 889 3010 3690 7650
2026-04-30 12:30 5.68 779 18600 (2017) 28 (2023) 2540 43 90 110 889 3010 3690 7650
2026-04-30 11:30 5.72 796 18600 (2017) 28 (2023) 2540 43 90 110 889 3010 3690 7650
2026-04-30 10:30 5.76 813 18600 (2017) 28 (2023) 2540 43 90 110 889 3010 3690 7650
2026-04-30 09:30 5.78 822 18600 (2017) 28 (2023) 2540 43 90 110 889 3010 3690 7650
2026-04-30 08:30 5.76 813 18600 (2017) 28 (2023) 2540 43 90 110 889 3010 3690 7650
2026-04-30 07:30 5.74 805 18600 (2017) 28 (2023) 2540 43 90 110 889 3010 3690 7650
2026-04-30 06:30 5.71 792 18600 (2017) 28 (2023) 2540 43 90 110 889 3010 3690 7650
2026-04-30 05:30 5.64 763 18600 (2017) 28 (2023) 2540 43 90 110 889 3010 3690 7650
2026-04-30 03:30 5.42 673 18600 (2017) 28 (2023) 2540 43 90 110 889 3010 3690 7650
2026-04-30 02:30 5.35 646 18600 (2017) 28 (2023) 2540 43 90 110 889 3010 3690 7650
2026-04-30 01:30 5.29 623 18600 (2017) 28 (2023) 2540 43 90 110 889 3010 3690 7650
2026-04-29 23:30 5.28 619 18600 (2017) 28 (2023) 2540 43 90 110 889 3010 3690 7650
2026-04-29 19:30 5.57 734 6290 (2017) 30 (2023) 1330 71 97 102 299 1490 3450 5780
2026-04-29 18:30 5.65 767 6290 (2017) 30 (2023) 1330 71 97 102 299 1490 3450 5780
2026-04-29 17:30 5.78 822 6290 (2017) 30 (2023) 1330 71 97 102 299 1490 3450 5780
2026-04-29 12:30 6.56 1180 6290 (2017) 30 (2023) 1330 71 97 102 299 1490 3450 5780
2026-04-29 11:30 6.79 1280 6290 (2017) 30 (2023) 1330 71 97 102 299 1490 3450 5780
2026-04-29 10:30 7.04 1390 6290 (2017) 30 (2023) 1330 71 97 102 299 1490 3450 5780
2026-04-29 09:30 7.33 1510 6290 (2017) 30 (2023) 1330 71 97 102 299 1490 3450 5780
2026-04-29 06:30 8.53 2090 6290 (2017) 30 (2023) 1330 71 97 102 299 1490 3450 5780
2026-04-29 05:30 9.04 2350 6290 (2017) 30 (2023) 1330 71 97 102 299 1490 3450 5780
2026-04-29 04:30 9.32 2500 6290 (2017) 30 (2023) 1330 71 97 102 299 1490 3450 5780
2026-04-29 03:30 9.67 2690 6290 (2017) 30 (2023) 1330 71 97 102 299 1490 3450 5780
2026-04-29 02:30 9.92 2830 6290 (2017) 30 (2023) 1330 71 97 102 299 1490 3450 5780
2026-04-29 01:30 10.07 2920 6290 (2017) 30 (2023) 1330 71 97 102 299 1490 3450 5780
2026-04-29 00:30 10.09 2930 6290 (2017) 30 (2023) 1330 71 97 102 299 1490 3450 5780
2026-04-28 23:30 9.91 2830 6290 (2017) 30 (2023) 1330 71 97 102 299 1490 3450 5780
2026-04-28 22:30 9.54 2620 6410 (2013) 30 (2023) 1030 38 98 106 209 1370 2750 3760
2026-04-28 21:30 8.99 2320 6410 (2013) 30 (2023) 1030 38 98 106 209 1370 2750 3760
2026-04-28 20:30 8.49 2070 6410 (2013) 30 (2023) 1030 38 98 106 209 1370 2750 3760
2026-04-28 19:30 8.08 1860 6410 (2013) 30 (2023) 1030 38 98 106 209 1370 2750 3760
2026-04-28 18:30 7.74 1700 6410 (2013) 30 (2023) 1030 38 98 106 209 1370 2750 3760
2026-04-28 17:30 7.35 1520 6410 (2013) 30 (2023) 1030 38 98 106 209 1370 2750 3760
2026-04-28 16:30 6.45 1130 6410 (2013) 30 (2023) 1030 38 98 106 209 1370 2750 3760
2026-04-28 15:30 5.59 742 6410 (2013) 30 (2023) 1030 38 98 106 209 1370 2750 3760
2026-04-28 14:30 4.98 510 6410 (2013) 30 (2023) 1030 38 98 106 209 1370 2750 3760
2026-04-28 13:30 4.63 397 6410 (2013) 30 (2023) 1030 38 98 106 209 1370 2750 3760
2026-04-28 12:30 4.50 358 6410 (2013) 30 (2023) 1030 38 98 106 209 1370 2750 3760
2026-04-28 11:30 4.49 355 6410 (2013) 30 (2023) 1030 38 98 106 209 1370 2750 3760
2026-04-28 10:30 4.51 361 6410 (2013) 30 (2023) 1030 38 98 106 209 1370 2750 3760
2026-04-28 09:30 4.52 364 6410 (2013) 30 (2023) 1030 38 98 106 209 1370 2750 3760
2026-04-28 08:30 4.54 370 6410 (2013) 30 (2023) 1030 38 98 106 209 1370 2750 3760
2026-04-28 07:30 4.57 379 6410 (2013) 30 (2023) 1030 38 98 106 209 1370 2750 3760
2026-04-28 06:30 4.60 388 6410 (2013) 30 (2023) 1030 38 98 106 209 1370 2750 3760
2026-04-28 05:30 4.63 397 6410 (2013) 30 (2023) 1030 38 98 106 209 1370 2750 3760
2026-04-28 04:30 4.67 409 6410 (2013) 30 (2023) 1030 38 98 106 209 1370 2750 3760
2026-04-28 03:30 4.70 418 6410 (2013) 30 (2023) 1030 38 98 106 209 1370 2750 3760
2026-04-28 02:30 4.73 428 6410 (2013) 30 (2023) 1030 38 98 106 209 1370 2750 3760
2026-04-28 01:30 4.78 444 6410 (2013) 30 (2023) 1030 38 98 106 209 1370 2750 3760
2026-04-28 00:30 4.81 453 6410 (2013) 30 (2023) 1030 38 98 106 209 1370 2750 3760
2026-04-27 23:30 4.85 466 6410 (2013) 30 (2023) 1030 38 98 106 209 1370 2750 3760

A total of 164 rows are displayed for years 2008 through 2025.